createdAt,value
2022-08-09T00:06:16.521Z,1.20
2022-08-09T00:15:59.820Z,1.35
2022-08-09T00:26:30.083Z,1.27
2022-08-09T00:36:55.223Z,1.57
2022-08-09T00:47:18.650Z,1.55
2022-08-09T00:57:41.588Z,1.80
2022-08-09T01:08:35.082Z,1.48
2022-08-09T01:19:04.689Z,1.50
2022-08-09T01:29:40.888Z,1.77
2022-08-09T01:40:23.211Z,1.85
2022-08-09T01:50:55.206Z,2.30
2022-08-09T02:01:18.718Z,1.83
2022-08-09T02:11:43.633Z,2.10
2022-08-09T02:22:34.877Z,2.00
2022-08-09T02:33:02.004Z,1.85
2022-08-09T02:43:28.714Z,1.60
2022-08-09T02:54:00.922Z,1.90
2022-08-09T03:04:26.268Z,1.88
2022-08-09T03:14:51.450Z,1.60
2022-08-09T03:25:56.869Z,1.80
2022-08-09T03:36:12.647Z,2.30
2022-08-09T03:46:37.315Z,1.83
2022-08-09T03:57:18.466Z,2.00
2022-08-09T04:07:53.454Z,2.10
2022-08-09T04:18:21.443Z,2.03
2022-08-09T04:28:46.973Z,2.17
2022-08-09T04:39:08.774Z,2.90
2022-08-09T04:49:53.071Z,2.83
2022-08-09T05:00:17.108Z,3.20
2022-08-09T05:10:38.815Z,3.00
2022-08-09T05:31:37.041Z,3.58
2022-08-09T05:42:04.786Z,3.13
2022-08-09T05:52:27.732Z,2.92
2022-08-09T06:02:56.630Z,2.45
2022-08-09T06:13:20.626Z,2.00
2022-08-09T06:23:57.777Z,1.83
2022-08-09T06:34:23.582Z,2.10
2022-08-09T06:44:51.870Z,1.65
2022-08-09T06:55:23.234Z,1.35
2022-08-09T07:05:53.750Z,1.20
2022-08-09T07:16:42.791Z,1.20
2022-08-09T07:27:27.137Z,1.00
2022-08-09T07:37:54.127Z,1.00
2022-08-09T07:48:28.498Z,1.15
2022-08-09T07:58:52.071Z,1.08
2022-08-09T08:09:34.321Z,1.15
2022-08-09T08:19:55.773Z,0.90
2022-08-09T08:30:18.561Z,0.80
2022-08-09T08:40:42.016Z,1.00
2022-08-09T08:51:04.382Z,0.70
2022-08-09T09:01:44.809Z,0.90
2022-08-09T09:12:16.508Z,0.80
2022-08-09T09:22:56.109Z,0.90
2022-08-09T09:33:18.111Z,0.70
2022-08-09T09:43:41.591Z,0.90
2022-08-09T09:54:22.697Z,0.80
2022-08-09T10:04:45.369Z,0.60
2022-08-09T10:15:17.716Z,0.80
2022-08-09T10:26:06.797Z,0.90
2022-08-09T10:36:30.558Z,0.82
2022-08-09T10:47:20.504Z,0.90
2022-08-09T10:57:46.912Z,0.68
2022-08-09T11:08:54.018Z,0.80
2022-08-09T11:30:33.438Z,0.80
2022-08-09T11:40:56.718Z,0.70
2022-08-09T11:53:02.283Z,0.60
2022-08-09T12:02:34.095Z,0.60
2022-08-09T12:12:54.589Z,0.40
2022-08-09T12:23:16.218Z,0.82
2022-08-09T12:33:58.457Z,0.63
2022-08-09T12:44:24.587Z,1.00
2022-08-09T12:56:12.209Z,0.90
2022-08-09T13:05:51.806Z,1.10
2022-08-09T13:16:52.225Z,1.00
2022-08-09T13:27:28.913Z,1.10
2022-08-09T13:37:52.949Z,1.00
2022-08-09T13:48:15.631Z,1.17
2022-08-09T13:58:37.261Z,1.10
2022-08-09T14:08:59.405Z,0.93
2022-08-09T14:19:21.317Z,1.00
2022-08-09T14:30:18.409Z,0.90
2022-08-09T14:40:28.259Z,1.00
2022-08-09T14:51:08.096Z,0.90
2022-08-09T15:01:30.657Z,0.70
2022-08-09T15:11:53.756Z,1.10
2022-08-09T15:22:17.587Z,0.90
2022-08-09T15:32:39.368Z,0.90
2022-08-09T15:43:01.887Z,0.95
2022-08-09T15:54:03.374Z,0.90
2022-08-09T16:04:06.451Z,0.90
2022-08-09T16:14:35.408Z,0.90
2022-08-09T16:24:59.550Z,0.90
2022-08-09T16:35:55.692Z,0.82
2022-08-09T16:46:05.303Z,0.68
2022-08-09T16:56:30.676Z,0.80
2022-08-09T17:08:40.830Z,0.60
2022-08-09T17:17:51.040Z,0.80
2022-08-09T17:28:13.758Z,0.60
2022-08-09T17:38:38.630Z,0.50
2022-08-09T17:49:01.019Z,0.47
2022-08-09T17:59:22.836Z,0.60
2022-08-09T18:10:04.279Z,0.70
2022-08-09T18:20:55.429Z,0.40
2022-08-09T18:31:08.532Z,0.50
2022-08-09T18:41:34.863Z,0.38
2022-08-09T18:51:58.058Z,0.57
2022-08-09T19:02:20.788Z,0.70
2022-08-09T19:12:58.822Z,0.50
2022-08-09T19:24:33.609Z,0.57
2022-08-09T19:34:22.089Z,0.55
2022-08-09T19:44:50.557Z,0.65
2022-08-09T19:55:13.173Z,0.60
2022-08-09T20:05:46.816Z,0.73
2022-08-09T20:16:33.879Z,0.70
2022-08-09T20:26:53.772Z,0.70
2022-08-09T20:37:21.576Z,0.70
2022-08-09T20:47:48.056Z,0.90
2022-08-09T20:58:20.238Z,0.85
2022-08-09T21:08:43.939Z,1.10
2022-08-09T21:20:19.214Z,1.00
2022-08-09T21:29:48.914Z,1.02
2022-08-09T21:40:12.494Z,1.13
2022-08-09T21:50:46.704Z,1.15
2022-08-09T22:01:12.861Z,1.30
2022-08-09T22:12:17.921Z,1.40
2022-08-09T22:22:36.198Z,1.42
2022-08-09T22:32:58.869Z,1.73
2022-08-09T22:44:00.541Z,1.90
2022-08-09T22:54:03.369Z,2.03
2022-08-09T23:04:25.480Z,2.08
2022-08-09T23:14:47.217Z,2.20
2022-08-09T23:25:15.453Z,2.30
2022-08-09T23:36:06.366Z,2.30
2022-08-09T23:46:19.211Z,2.35
2022-08-09T23:56:54.932Z,2.60
